sensor_id;sensor_type;location;lat;lon;timestamp;P1;durP1;ratioP1;P2;durP2;ratioP2
2934;SDS011;2462;51.456;7.248;2024-01-16T00:02:15;4.67;;;3.00;;
2934;SDS011;2462;51.456;7.248;2024-01-16T00:04:41;6.23;;;3.00;;
2934;SDS011;2462;51.456;7.248;2024-01-16T00:07:07;3.90;;;3.00;;
2934;SDS011;2462;51.456;7.248;2024-01-16T00:09:33;4.30;;;2.70;;
2934;SDS011;2462;51.456;7.248;2024-01-16T00:12:00;2.80;;;2.60;;
2934;SDS011;2462;51.456;7.248;2024-01-16T00:14:26;3.50;;;2.93;;
2934;SDS011;2462;51.456;7.248;2024-01-16T00:16:52;4.17;;;3.33;;
2934;SDS011;2462;51.456;7.248;2024-01-16T00:19:18;5.07;;;3.00;;
2934;SDS011;2462;51.456;7.248;2024-01-16T00:21:44;3.60;;;2.57;;
2934;SDS011;2462;51.456;7.248;2024-01-16T00:24:12;2.67;;;2.47;;
2934;SDS011;2462;51.456;7.248;2024-01-16T00:26:38;4.73;;;3.17;;
2934;SDS011;2462;51.456;7.248;2024-01-16T00:29:04;3.00;;;2.70;;
2934;SDS011;2462;51.456;7.248;2024-01-16T00:31:29;3.67;;;3.37;;
2934;SDS011;2462;51.456;7.248;2024-01-16T00:33:55;3.93;;;2.97;;
2934;SDS011;2462;51.456;7.248;2024-01-16T00:36:21;3.13;;;2.50;;
2934;SDS011;2462;51.456;7.248;2024-01-16T00:38:47;3.40;;;3.10;;
2934;SDS011;2462;51.456;7.248;2024-01-16T00:41:13;4.50;;;2.57;;
2934;SDS011;2462;51.456;7.248;2024-01-16T00:43:40;3.80;;;3.00;;
2934;SDS011;2462;51.456;7.248;2024-01-16T00:46:06;4.40;;;3.40;;
2934;SDS011;2462;51.456;7.248;2024-01-16T00:48:32;3.20;;;2.90;;
2934;SDS011;2462;51.456;7.248;2024-01-16T00:50:58;3.60;;;2.60;;
2934;SDS011;2462;51.456;7.248;2024-01-16T00:53:26;3.50;;;3.20;;
2934;SDS011;2462;51.456;7.248;2024-01-16T00:55:52;5.33;;;2.50;;
2934;SDS011;2462;51.456;7.248;2024-01-16T00:58:19;5.00;;;2.73;;
2934;SDS011;2462;51.456;7.248;2024-01-16T01:00:45;3.50;;;3.20;;
2934;SDS011;2462;51.456;7.248;2024-01-16T01:03:11;3.73;;;2.40;;
2934;SDS011;2462;51.456;7.248;2024-01-16T01:05:37;5.50;;;2.63;;
2934;SDS011;2462;51.456;7.248;2024-01-16T01:08:03;3.57;;;2.80;;
2934;SDS011;2462;51.456;7.248;2024-01-16T01:10:29;8.33;;;3.00;;
2934;SDS011;2462;51.456;7.248;2024-01-16T01:12:55;2.97;;;2.67;;
2934;SDS011;2462;51.456;7.248;2024-01-16T01:15:21;4.20;;;3.20;;
2934;SDS011;2462;51.456;7.248;2024-01-16T01:17:50;3.97;;;2.47;;
2934;SDS011;2462;51.456;7.248;2024-01-16T01:20:17;3.40;;;3.00;;
2934;SDS011;2462;51.456;7.248;2024-01-16T01:22:44;2.70;;;2.50;;
2934;SDS011;2462;51.456;7.248;2024-01-16T01:25:10;5.20;;;3.00;;
2934;SDS011;2462;51.456;7.248;2024-01-16T01:27:36;3.37;;;2.70;;
2934;SDS011;2462;51.456;7.248;2024-01-16T01:30:02;2.77;;;2.50;;
2934;SDS011;2462;51.456;7.248;2024-01-16T01:32:29;4.27;;;2.77;;
2934;SDS011;2462;51.456;7.248;2024-01-16T01:34:54;3.00;;;2.50;;
2934;SDS011;2462;51.456;7.248;2024-01-16T01:37:20;3.73;;;2.57;;
2934;SDS011;2462;51.456;7.248;2024-01-16T01:39:46;4.50;;;3.07;;
2934;SDS011;2462;51.456;7.248;2024-01-16T01:42:12;4.80;;;2.50;;
2934;SDS011;2462;51.456;7.248;2024-01-16T01:44:38;2.53;;;2.33;;
2934;SDS011;2462;51.456;7.248;2024-01-16T01:47:04;5.90;;;2.73;;
2934;SDS011;2462;51.456;7.248;2024-01-16T01:49:30;4.50;;;2.90;;
2934;SDS011;2462;51.456;7.248;2024-01-16T01:51:57;3.50;;;2.40;;
2934;SDS011;2462;51.456;7.248;2024-01-16T01:54:23;6.30;;;3.10;;
2934;SDS011;2462;51.456;7.248;2024-01-16T01:56:50;4.33;;;3.03;;
2934;SDS011;2462;51.456;7.248;2024-01-16T01:59:17;3.17;;;2.53;;
2934;SDS011;2462;51.456;7.248;2024-01-16T02:01:46;3.10;;;2.10;;
2934;SDS011;2462;51.456;7.248;2024-01-16T02:04:14;2.80;;;2.50;;
2934;SDS011;2462;51.456;7.248;2024-01-16T02:06:43;2.40;;;2.20;;
2934;SDS011;2462;51.456;7.248;2024-01-16T02:09:09;2.30;;;2.10;;
2934;SDS011;2462;51.456;7.248;2024-01-16T02:11:38;3.03;;;2.77;;
2934;SDS011;2462;51.456;7.248;2024-01-16T02:14:04;2.80;;;2.40;;
2934;SDS011;2462;51.456;7.248;2024-01-16T02:16:34;2.90;;;2.23;;
2934;SDS011;2462;51.456;7.248;2024-01-16T02:19:01;3.50;;;2.37;;
2934;SDS011;2462;51.456;7.248;2024-01-16T02:21:28;3.43;;;2.40;;
2934;SDS011;2462;51.456;7.248;2024-01-16T02:23:54;3.87;;;2.60;;
2934;SDS011;2462;51.456;7.248;2024-01-16T02:26:20;2.30;;;2.10;;
2934;SDS011;2462;51.456;7.248;2024-01-16T02:28:46;5.33;;;2.60;;
2934;SDS011;2462;51.456;7.248;2024-01-16T02:31:12;3.80;;;2.70;;
2934;SDS011;2462;51.456;7.248;2024-01-16T02:33:38;2.90;;;2.27;;
2934;SDS011;2462;51.456;7.248;2024-01-16T02:36:04;4.30;;;2.57;;
2934;SDS011;2462;51.456;7.248;2024-01-16T02:38:30;3.37;;;2.63;;
2934;SDS011;2462;51.456;7.248;2024-01-16T02:40:55;2.47;;;2.27;;
2934;SDS011;2462;51.456;7.248;2024-01-16T02:43:21;2.40;;;2.20;;
2934;SDS011;2462;51.456;7.248;2024-01-16T02:45:48;2.50;;;2.30;;
2934;SDS011;2462;51.456;7.248;2024-01-16T02:48:14;2.67;;;2.53;;
2934;SDS011;2462;51.456;7.248;2024-01-16T02:50:40;3.53;;;2.27;;
2934;SDS011;2462;51.456;7.248;2024-01-16T02:53:06;4.07;;;2.50;;
2934;SDS011;2462;51.456;7.248;2024-01-16T02:55:32;2.03;;;1.77;;
2934;SDS011;2462;51.456;7.248;2024-01-16T02:57:58;3.53;;;2.60;;
2934;SDS011;2462;51.456;7.248;2024-01-16T03:00:24;2.37;;;2.17;;
2934;SDS011;2462;51.456;7.248;2024-01-16T03:02:50;2.30;;;2.10;;
2934;SDS011;2462;51.456;7.248;2024-01-16T03:05:15;2.70;;;2.50;;
2934;SDS011;2462;51.456;7.248;2024-01-16T03:07:41;2.50;;;2.30;;
2934;SDS011;2462;51.456;7.248;2024-01-16T03:10:07;2.70;;;2.00;;
2934;SDS011;2462;51.456;7.248;2024-01-16T03:12:33;2.73;;;2.50;;
2934;SDS011;2462;51.456;7.248;2024-01-16T03:14:59;2.80;;;2.57;;
2934;SDS011;2462;51.456;7.248;2024-01-16T03:17:25;2.60;;;2.40;;
2934;SDS011;2462;51.456;7.248;2024-01-16T03:19:51;2.60;;;2.27;;
2934;SDS011;2462;51.456;7.248;2024-01-16T03:22:17;2.60;;;2.33;;
2934;SDS011;2462;51.456;7.248;2024-01-16T03:24:43;3.10;;;2.60;;
2934;SDS011;2462;51.456;7.248;2024-01-16T03:27:09;4.13;;;2.90;;
2934;SDS011;2462;51.456;7.248;2024-01-16T03:29:35;3.87;;;2.37;;
2934;SDS011;2462;51.456;7.248;2024-01-16T03:32:01;4.77;;;2.60;;
2934;SDS011;2462;51.456;7.248;2024-01-16T03:34:27;4.50;;;3.27;;
2934;SDS011;2462;51.456;7.248;2024-01-16T03:36:53;5.23;;;3.40;;
2934;SDS011;2462;51.456;7.248;2024-01-16T03:39:19;5.90;;;2.53;;
2934;SDS011;2462;51.456;7.248;2024-01-16T03:41:45;3.57;;;2.87;;
2934;SDS011;2462;51.456;7.248;2024-01-16T03:44:11;4.80;;;3.03;;
2934;SDS011;2462;51.456;7.248;2024-01-16T03:46:37;3.80;;;3.40;;
2934;SDS011;2462;51.456;7.248;2024-01-16T03:49:03;4.17;;;3.40;;
2934;SDS011;2462;51.456;7.248;2024-01-16T03:51:29;4.53;;;3.30;;
2934;SDS011;2462;51.456;7.248;2024-01-16T03:53:55;3.33;;;3.03;;
2934;SDS011;2462;51.456;7.248;2024-01-16T03:56:22;3.27;;;2.97;;
2934;SDS011;2462;51.456;7.248;2024-01-16T03:58:48;3.97;;;3.67;;
2934;SDS011;2462;51.456;7.248;2024-01-16T04:01:14;4.53;;;2.80;;
2934;SDS011;2462;51.456;7.248;2024-01-16T04:03:40;7.40;;;3.60;;
2934;SDS011;2462;51.456;7.248;2024-01-16T04:06:16;6.07;;;3.10;;
2934;SDS011;2462;51.456;7.248;2024-01-16T04:08:43;4.77;;;3.67;;
2934;SDS011;2462;51.456;7.248;2024-01-16T04:11:12;4.50;;;4.10;;
2934;SDS011;2462;51.456;7.248;2024-01-16T04:13:38;5.27;;;4.23;;
2934;SDS011;2462;51.456;7.248;2024-01-16T04:16:05;3.10;;;2.90;;
2934;SDS011;2462;51.456;7.248;2024-01-16T04:18:38;3.17;;;2.97;;
2934;SDS011;2462;51.456;7.248;2024-01-16T04:21:04;4.23;;;3.83;;
2934;SDS011;2462;51.456;7.248;2024-01-16T04:23:31;5.30;;;4.00;;
2934;SDS011;2462;51.456;7.248;2024-01-16T04:25:57;4.37;;;3.97;;
2934;SDS011;2462;51.456;7.248;2024-01-16T04:28:22;3.67;;;3.37;;
2934;SDS011;2462;51.456;7.248;2024-01-16T04:30:48;4.20;;;3.80;;
2934;SDS011;2462;51.456;7.248;2024-01-16T04:33:14;3.63;;;3.33;;
2934;SDS011;2462;51.456;7.248;2024-01-16T04:35:40;5.50;;;3.80;;
2934;SDS011;2462;51.456;7.248;2024-01-16T04:38:06;4.03;;;3.73;;
2934;SDS011;2462;51.456;7.248;2024-01-16T04:40:32;5.23;;;4.40;;
2934;SDS011;2462;51.456;7.248;2024-01-16T04:42:58;5.90;;;3.73;;
2934;SDS011;2462;51.456;7.248;2024-01-16T04:45:24;4.53;;;4.17;;
2934;SDS011;2462;51.456;7.248;2024-01-16T04:47:50;3.90;;;3.50;;
2934;SDS011;2462;51.456;7.248;2024-01-16T04:50:16;4.73;;;4.23;;
2934;SDS011;2462;51.456;7.248;2024-01-16T04:52:42;3.67;;;3.30;;
2934;SDS011;2462;51.456;7.248;2024-01-16T04:55:08;4.93;;;4.47;;
2934;SDS011;2462;51.456;7.248;2024-01-16T04:57:34;4.40;;;4.00;;
2934;SDS011;2462;51.456;7.248;2024-01-16T05:00:00;6.20;;;4.63;;
2934;SDS011;2462;51.456;7.248;2024-01-16T05:02:26;6.60;;;4.60;;
2934;SDS011;2462;51.456;7.248;2024-01-16T05:04:52;5.10;;;4.03;;
2934;SDS011;2462;51.456;7.248;2024-01-16T05:07:18;4.70;;;4.30;;
2934;SDS011;2462;51.456;7.248;2024-01-16T05:09:47;5.70;;;5.00;;
2934;SDS011;2462;51.456;7.248;2024-01-16T05:12:13;4.80;;;4.07;;
2934;SDS011;2462;51.456;7.248;2024-01-16T05:14:39;5.63;;;4.80;;
2934;SDS011;2462;51.456;7.248;2024-01-16T05:17:05;5.27;;;4.43;;
2934;SDS011;2462;51.456;7.248;2024-01-16T05:19:31;5.13;;;4.53;;
2934;SDS011;2462;51.456;7.248;2024-01-16T05:21:57;5.83;;;4.60;;
2934;SDS011;2462;51.456;7.248;2024-01-16T05:24:23;4.93;;;4.37;;
2934;SDS011;2462;51.456;7.248;2024-01-16T05:26:49;5.63;;;3.73;;
2934;SDS011;2462;51.456;7.248;2024-01-16T05:29:15;4.57;;;4.07;;
2934;SDS011;2462;51.456;7.248;2024-01-16T05:31:41;5.73;;;3.90;;
2934;SDS011;2462;51.456;7.248;2024-01-16T05:34:07;5.27;;;4.40;;
2934;SDS011;2462;51.456;7.248;2024-01-16T05:36:33;6.67;;;4.53;;
2934;SDS011;2462;51.456;7.248;2024-01-16T05:38:59;6.33;;;4.23;;
2934;SDS011;2462;51.456;7.248;2024-01-16T05:41:26;3.90;;;3.50;;
2934;SDS011;2462;51.456;7.248;2024-01-16T05:43:52;4.30;;;3.90;;
2934;SDS011;2462;51.456;7.248;2024-01-16T05:46:18;4.07;;;3.63;;
2934;SDS011;2462;51.456;7.248;2024-01-16T05:48:44;3.90;;;3.60;;
2934;SDS011;2462;51.456;7.248;2024-01-16T05:51:10;6.17;;;4.80;;
2934;SDS011;2462;51.456;7.248;2024-01-16T05:53:36;4.73;;;4.20;;
2934;SDS011;2462;51.456;7.248;2024-01-16T05:56:03;4.03;;;3.63;;
2934;SDS011;2462;51.456;7.248;2024-01-16T05:58:29;4.00;;;3.60;;
2934;SDS011;2462;51.456;7.248;2024-01-16T06:01:01;4.13;;;3.57;;
2934;SDS011;2462;51.456;7.248;2024-01-16T06:03:27;4.00;;;3.70;;
2934;SDS011;2462;51.456;7.248;2024-01-16T06:05:53;4.27;;;3.80;;
2934;SDS011;2462;51.456;7.248;2024-01-16T06:08:19;4.40;;;3.97;;
2934;SDS011;2462;51.456;7.248;2024-01-16T06:10:45;3.40;;;3.10;;
2934;SDS011;2462;51.456;7.248;2024-01-16T06:13:11;3.70;;;3.23;;
2934;SDS011;2462;51.456;7.248;2024-01-16T06:15:37;3.50;;;3.20;;
2934;SDS011;2462;51.456;7.248;2024-01-16T06:18:03;4.90;;;4.13;;
2934;SDS011;2462;51.456;7.248;2024-01-16T06:20:29;3.97;;;3.57;;
2934;SDS011;2462;51.456;7.248;2024-01-16T06:22:55;3.70;;;3.40;;
2934;SDS011;2462;51.456;7.248;2024-01-16T06:25:21;6.00;;;3.50;;
2934;SDS011;2462;51.456;7.248;2024-01-16T06:27:47;5.47;;;3.60;;
2934;SDS011;2462;51.456;7.248;2024-01-16T06:30:13;4.10;;;3.70;;
2934;SDS011;2462;51.456;7.248;2024-01-16T06:32:39;3.87;;;3.13;;
2934;SDS011;2462;51.456;7.248;2024-01-16T06:35:05;3.30;;;3.00;;
2934;SDS011;2462;51.456;7.248;2024-01-16T06:37:32;3.93;;;3.63;;
2934;SDS011;2462;51.456;7.248;2024-01-16T06:39:58;2.97;;;2.77;;
2934;SDS011;2462;51.456;7.248;2024-01-16T06:42:24;3.10;;;2.90;;
2934;SDS011;2462;51.456;7.248;2024-01-16T06:44:50;5.37;;;3.97;;
2934;SDS011;2462;51.456;7.248;2024-01-16T06:47:16;4.33;;;3.50;;
2934;SDS011;2462;51.456;7.248;2024-01-16T06:49:42;5.07;;;3.80;;
2934;SDS011;2462;51.456;7.248;2024-01-16T06:52:08;5.90;;;3.50;;
2934;SDS011;2462;51.456;7.248;2024-01-16T06:54:34;6.53;;;3.57;;
2934;SDS011;2462;51.456;7.248;2024-01-16T06:57:00;4.00;;;3.23;;
2934;SDS011;2462;51.456;7.248;2024-01-16T06:59:26;5.30;;;4.20;;
2934;SDS011;2462;51.456;7.248;2024-01-16T07:01:53;6.03;;;3.87;;
2934;SDS011;2462;51.456;7.248;2024-01-16T07:04:20;4.77;;;3.90;;
2934;SDS011;2462;51.456;7.248;2024-01-16T07:06:45;3.97;;;3.57;;
2934;SDS011;2462;51.456;7.248;2024-01-16T07:09:12;4.47;;;3.80;;
2934;SDS011;2462;51.456;7.248;2024-01-16T07:11:38;4.07;;;3.60;;
2934;SDS011;2462;51.456;7.248;2024-01-16T07:14:08;5.50;;;4.03;;
2934;SDS011;2462;51.456;7.248;2024-01-16T07:16:34;4.77;;;4.30;;
2934;SDS011;2462;51.456;7.248;2024-01-16T07:19:01;4.07;;;3.67;;
2934;SDS011;2462;51.456;7.248;2024-01-16T07:21:27;6.67;;;4.30;;
2934;SDS011;2462;51.456;7.248;2024-01-16T07:23:53;4.03;;;3.63;;
2934;SDS011;2462;51.456;7.248;2024-01-16T07:26:19;6.67;;;4.53;;
2934;SDS011;2462;51.456;7.248;2024-01-16T07:28:45;4.67;;;4.10;;
2934;SDS011;2462;51.456;7.248;2024-01-16T07:31:13;4.20;;;3.80;;
2934;SDS011;2462;51.456;7.248;2024-01-16T07:33:39;4.93;;;4.20;;
2934;SDS011;2462;51.456;7.248;2024-01-16T07:36:05;4.23;;;3.87;;
2934;SDS011;2462;51.456;7.248;2024-01-16T07:38:31;4.10;;;3.60;;
2934;SDS011;2462;51.456;7.248;2024-01-16T07:40:59;6.50;;;3.77;;
2934;SDS011;2462;51.456;7.248;2024-01-16T07:43:25;5.90;;;4.00;;
2934;SDS011;2462;51.456;7.248;2024-01-16T07:45:51;3.90;;;3.60;;
2934;SDS011;2462;51.456;7.248;2024-01-16T07:48:17;4.17;;;3.77;;
2934;SDS011;2462;51.456;7.248;2024-01-16T07:50:43;4.63;;;3.80;;
2934;SDS011;2462;51.456;7.248;2024-01-16T07:53:10;5.30;;;3.67;;
2934;SDS011;2462;51.456;7.248;2024-01-16T07:55:36;4.40;;;3.80;;
2934;SDS011;2462;51.456;7.248;2024-01-16T07:58:03;4.87;;;4.27;;
2934;SDS011;2462;51.456;7.248;2024-01-16T08:00:30;4.20;;;3.80;;
2934;SDS011;2462;51.456;7.248;2024-01-16T08:02:56;4.27;;;3.67;;
2934;SDS011;2462;51.456;7.248;2024-01-16T08:05:23;4.10;;;3.70;;
2934;SDS011;2462;51.456;7.248;2024-01-16T08:07:52;4.43;;;3.63;;
2934;SDS011;2462;51.456;7.248;2024-01-16T08:10:18;3.60;;;3.30;;
2934;SDS011;2462;51.456;7.248;2024-01-16T08:12:44;4.70;;;3.97;;
2934;SDS011;2462;51.456;7.248;2024-01-16T08:15:10;4.20;;;3.60;;
2934;SDS011;2462;51.456;7.248;2024-01-16T08:17:37;4.50;;;3.60;;
2934;SDS011;2462;51.456;7.248;2024-01-16T08:20:04;4.30;;;3.80;;
2934;SDS011;2462;51.456;7.248;2024-01-16T08:22:30;3.87;;;3.23;;
2934;SDS011;2462;51.456;7.248;2024-01-16T08:24:56;3.57;;;3.27;;
2934;SDS011;2462;51.456;7.248;2024-01-16T08:27:22;3.60;;;3.30;;
2934;SDS011;2462;51.456;7.248;2024-01-16T08:29:48;6.07;;;3.30;;
2934;SDS011;2462;51.456;7.248;2024-01-16T08:32:15;6.30;;;3.80;;
2934;SDS011;2462;51.456;7.248;2024-01-16T08:34:41;3.80;;;3.50;;
2934;SDS011;2462;51.456;7.248;2024-01-16T08:37:08;3.50;;;3.07;;
2934;SDS011;2462;51.456;7.248;2024-01-16T08:39:34;3.73;;;3.03;;
2934;SDS011;2462;51.456;7.248;2024-01-16T08:42:01;3.40;;;3.10;;
2934;SDS011;2462;51.456;7.248;2024-01-16T08:44:28;3.73;;;3.33;;
2934;SDS011;2462;51.456;7.248;2024-01-16T08:46:54;5.90;;;3.40;;
2934;SDS011;2462;51.456;7.248;2024-01-16T08:49:20;3.87;;;2.90;;
2934;SDS011;2462;51.456;7.248;2024-01-16T08:51:46;4.10;;;3.70;;
2934;SDS011;2462;51.456;7.248;2024-01-16T08:54:12;5.37;;;3.30;;
2934;SDS011;2462;51.456;7.248;2024-01-16T08:56:38;4.73;;;3.57;;
2934;SDS011;2462;51.456;7.248;2024-01-16T08:59:03;3.20;;;2.90;;
2934;SDS011;2462;51.456;7.248;2024-01-16T09:01:29;5.93;;;3.30;;
2934;SDS011;2462;51.456;7.248;2024-01-16T09:03:55;5.00;;;2.90;;
2934;SDS011;2462;51.456;7.248;2024-01-16T09:06:21;3.23;;;2.80;;
2934;SDS011;2462;51.456;7.248;2024-01-16T09:08:47;6.53;;;2.90;;
2934;SDS011;2462;51.456;7.248;2024-01-16T09:11:13;4.87;;;2.90;;
2934;SDS011;2462;51.456;7.248;2024-01-16T09:13:39;4.83;;;2.90;;
2934;SDS011;2462;51.456;7.248;2024-01-16T09:16:06;4.27;;;3.10;;
2934;SDS011;2462;51.456;7.248;2024-01-16T09:18:32;6.53;;;3.10;;
2934;SDS011;2462;51.456;7.248;2024-01-16T09:20:58;2.90;;;2.60;;
2934;SDS011;2462;51.456;7.248;2024-01-16T09:23:24;3.00;;;2.70;;
2934;SDS011;2462;51.456;7.248;2024-01-16T09:25:50;4.17;;;2.40;;
2934;SDS011;2462;51.456;7.248;2024-01-16T09:28:17;2.73;;;2.53;;
2934;SDS011;2462;51.456;7.248;2024-01-16T09:30:43;3.03;;;2.47;;
2934;SDS011;2462;51.456;7.248;2024-01-16T09:33:09;2.90;;;2.60;;
2934;SDS011;2462;51.456;7.248;2024-01-16T09:35:36;5.70;;;2.40;;
2934;SDS011;2462;51.456;7.248;2024-01-16T09:38:03;4.33;;;2.30;;
2934;SDS011;2462;51.456;7.248;2024-01-16T09:40:32;4.45;;;3.00;;
2934;SDS011;2462;51.456;7.248;2024-01-16T09:42:58;3.67;;;2.80;;
2934;SDS011;2462;51.456;7.248;2024-01-16T09:45:25;4.10;;;2.60;;
2934;SDS011;2462;51.456;7.248;2024-01-16T09:47:52;3.87;;;2.10;;
2934;SDS011;2462;51.456;7.248;2024-01-16T09:50:19;3.27;;;2.10;;
2934;SDS011;2462;51.456;7.248;2024-01-16T09:52:45;9.37;;;2.60;;
2934;SDS011;2462;51.456;7.248;2024-01-16T09:55:12;4.68;;;2.50;;
2934;SDS011;2462;51.456;7.248;2024-01-16T09:57:40;5.10;;;3.13;;
2934;SDS011;2462;51.456;7.248;2024-01-16T10:00:07;4.30;;;3.00;;
2934;SDS011;2462;51.456;7.248;2024-01-16T10:02:36;4.60;;;2.17;;
2934;SDS011;2462;51.456;7.248;2024-01-16T10:05:02;5.63;;;2.63;;
2934;SDS011;2462;51.456;7.248;2024-01-16T10:07:28;2.57;;;2.30;;
2934;SDS011;2462;51.456;7.248;2024-01-16T10:09:56;3.60;;;2.30;;
2934;SDS011;2462;51.456;7.248;2024-01-16T10:12:22;5.53;;;2.63;;
2934;SDS011;2462;51.456;7.248;2024-01-16T10:14:49;4.40;;;3.00;;
2934;SDS011;2462;51.456;7.248;2024-01-16T10:17:16;6.68;;;2.90;;
2934;SDS011;2462;51.456;7.248;2024-01-16T10:19:50;6.63;;;2.90;;
2934;SDS011;2462;51.456;7.248;2024-01-16T10:22:20;4.73;;;2.13;;
2934;SDS011;2462;51.456;7.248;2024-01-16T10:24:46;6.07;;;2.47;;
2934;SDS011;2462;51.456;7.248;2024-01-16T10:27:14;6.53;;;2.67;;
2934;SDS011;2462;51.456;7.248;2024-01-16T10:29:54;2.23;;;1.97;;
2934;SDS011;2462;51.456;7.248;2024-01-16T10:32:27;3.90;;;2.60;;
2934;SDS011;2462;51.456;7.248;2024-01-16T10:37:30;5.63;;;2.70;;
2934;SDS011;2462;51.456;7.248;2024-01-16T10:39:57;5.07;;;2.77;;
2934;SDS011;2462;51.456;7.248;2024-01-16T10:42:23;5.37;;;2.70;;
2934;SDS011;2462;51.456;7.248;2024-01-16T10:44:55;4.53;;;2.87;;
2934;SDS011;2462;51.456;7.248;2024-01-16T10:47:21;8.83;;;2.10;;
2934;SDS011;2462;51.456;7.248;2024-01-16T10:49:48;3.63;;;2.27;;
2934;SDS011;2462;51.456;7.248;2024-01-16T10:52:15;4.07;;;2.07;;
2934;SDS011;2462;51.456;7.248;2024-01-16T10:54:43;2.80;;;1.90;;
2934;SDS011;2462;51.456;7.248;2024-01-16T10:57:09;2.53;;;2.20;;
2934;SDS011;2462;51.456;7.248;2024-01-16T11:00:00;6.50;;;2.43;;
2934;SDS011;2462;51.456;7.248;2024-01-16T11:02:22;5.03;;;2.13;;
2934;SDS011;2462;51.456;7.248;2024-01-16T11:04:50;5.37;;;2.17;;
2934;SDS011;2462;51.456;7.248;2024-01-16T11:07:19;4.90;;;2.77;;
2934;SDS011;2462;51.456;7.248;2024-01-16T11:09:47;6.33;;;2.47;;
2934;SDS011;2462;51.456;7.248;2024-01-16T11:12:14;4.30;;;2.50;;
2934;SDS011;2462;51.456;7.248;2024-01-16T11:14:43;4.00;;;1.90;;
2934;SDS011;2462;51.456;7.248;2024-01-16T11:17:10;3.53;;;2.33;;
2934;SDS011;2462;51.456;7.248;2024-01-16T11:19:42;3.30;;;2.10;;
2934;SDS011;2462;51.456;7.248;2024-01-16T11:22:08;5.77;;;2.47;;
2934;SDS011;2462;51.456;7.248;2024-01-16T11:24:35;2.33;;;2.00;;
2934;SDS011;2462;51.456;7.248;2024-01-16T11:27:02;4.50;;;2.10;;
2934;SDS011;2462;51.456;7.248;2024-01-16T11:31:58;2.13;;;1.70;;
2934;SDS011;2462;51.456;7.248;2024-01-16T11:37:07;3.60;;;2.30;;
2934;SDS011;2462;51.456;7.248;2024-01-16T11:39:33;3.80;;;1.87;;
2934;SDS011;2462;51.456;7.248;2024-01-16T11:41:59;2.40;;;2.07;;
2934;SDS011;2462;51.456;7.248;2024-01-16T11:44:47;4.80;;;2.57;;
2934;SDS011;2462;51.456;7.248;2024-01-16T11:47:19;2.60;;;2.10;;
2934;SDS011;2462;51.456;7.248;2024-01-16T11:50:28;2.77;;;2.20;;
2934;SDS011;2462;51.456;7.248;2024-01-16T11:52:39;6.27;;;2.90;;
2934;SDS011;2462;51.456;7.248;2024-01-16T12:00:19;4.43;;;2.13;;
2934;SDS011;2462;51.456;7.248;2024-01-16T12:02:53;2.00;;;1.80;;
2934;SDS011;2462;51.456;7.248;2024-01-16T12:05:20;2.60;;;1.63;;
2934;SDS011;2462;51.456;7.248;2024-01-16T12:07:46;7.97;;;1.93;;
2934;SDS011;2462;51.456;7.248;2024-01-16T12:10:19;6.30;;;2.80;;
2934;SDS011;2462;51.456;7.248;2024-01-16T12:12:45;5.30;;;2.20;;
2934;SDS011;2462;51.456;7.248;2024-01-16T12:15:19;3.13;;;2.57;;
2934;SDS011;2462;51.456;7.248;2024-01-16T12:17:55;3.40;;;2.20;;
2934;SDS011;2462;51.456;7.248;2024-01-16T12:20:22;4.33;;;2.20;;
2934;SDS011;2462;51.456;7.248;2024-01-16T12:23:01;3.00;;;2.40;;
2934;SDS011;2462;51.456;7.248;2024-01-16T12:25:27;4.53;;;2.13;;
2934;SDS011;2462;51.456;7.248;2024-01-16T12:27:57;3.60;;;2.17;;
2934;SDS011;2462;51.456;7.248;2024-01-16T12:30:27;4.90;;;2.30;;
2934;SDS011;2462;51.456;7.248;2024-01-16T12:33:03;3.20;;;2.10;;
2934;SDS011;2462;51.456;7.248;2024-01-16T12:35:35;4.43;;;2.73;;
2934;SDS011;2462;51.456;7.248;2024-01-16T12:38:01;4.40;;;2.50;;
2934;SDS011;2462;51.456;7.248;2024-01-16T12:40:28;3.20;;;1.77;;
2934;SDS011;2462;51.456;7.248;2024-01-16T12:42:54;5.23;;;1.93;;
2934;SDS011;2462;51.456;7.248;2024-01-16T12:45:22;2.07;;;1.77;;
2934;SDS011;2462;51.456;7.248;2024-01-16T12:47:52;2.47;;;1.90;;
2934;SDS011;2462;51.456;7.248;2024-01-16T12:50:21;2.20;;;2.00;;
2934;SDS011;2462;51.456;7.248;2024-01-16T12:52:48;4.40;;;1.93;;
2934;SDS011;2462;51.456;7.248;2024-01-16T12:55:15;3.00;;;2.10;;
2934;SDS011;2462;51.456;7.248;2024-01-16T12:57:42;4.47;;;2.00;;
2934;SDS011;2462;51.456;7.248;2024-01-16T13:00:21;3.93;;;2.00;;
2934;SDS011;2462;51.456;7.248;2024-01-16T13:02:51;1.70;;;1.57;;
2934;SDS011;2462;51.456;7.248;2024-01-16T13:05:17;4.57;;;2.20;;
2934;SDS011;2462;51.456;7.248;2024-01-16T13:07:43;4.70;;;1.73;;
2934;SDS011;2462;51.456;7.248;2024-01-16T13:10:12;5.93;;;1.93;;
2934;SDS011;2462;51.456;7.248;2024-01-16T13:12:43;1.90;;;1.60;;
2934;SDS011;2462;51.456;7.248;2024-01-16T13:15:09;3.77;;;2.30;;
2934;SDS011;2462;51.456;7.248;2024-01-16T13:17:36;3.87;;;2.00;;
2934;SDS011;2462;51.456;7.248;2024-01-16T13:20:02;4.23;;;2.40;;
2934;SDS011;2462;51.456;7.248;2024-01-16T13:22:32;6.43;;;2.03;;
2934;SDS011;2462;51.456;7.248;2024-01-16T13:24:58;4.17;;;2.17;;
2934;SDS011;2462;51.456;7.248;2024-01-16T13:27:26;2.90;;;2.07;;
2934;SDS011;2462;51.456;7.248;2024-01-16T13:29:54;4.80;;;2.07;;
2934;SDS011;2462;51.456;7.248;2024-01-16T13:32:20;3.83;;;2.10;;
2934;SDS011;2462;51.456;7.248;2024-01-16T13:34:46;5.20;;;3.20;;
2934;SDS011;2462;51.456;7.248;2024-01-16T13:37:16;5.33;;;2.47;;
2934;SDS011;2462;51.456;7.248;2024-01-16T13:39:44;4.00;;;2.60;;
2934;SDS011;2462;51.456;7.248;2024-01-16T13:42:10;3.30;;;2.40;;
2934;SDS011;2462;51.456;7.248;2024-01-16T13:44:36;4.13;;;2.60;;
2934;SDS011;2462;51.456;7.248;2024-01-16T13:47:03;2.83;;;2.33;;
2934;SDS011;2462;51.456;7.248;2024-01-16T13:49:29;6.20;;;3.57;;
2934;SDS011;2462;51.456;7.248;2024-01-16T13:51:55;14.40;;;4.60;;
2934;SDS011;2462;51.456;7.248;2024-01-16T13:54:21;17.83;;;5.57;;
2934;SDS011;2462;51.456;7.248;2024-01-16T13:56:47;302.63;;;25.97;;
2934;SDS011;2462;51.456;7.248;2024-01-16T13:59:14;217.23;;;17.30;;
2934;SDS011;2462;51.456;7.248;2024-01-16T14:01:40;397.70;;;33.63;;
2934;SDS011;2462;51.456;7.248;2024-01-16T14:04:06;368.10;;;32.87;;
2934;SDS011;2462;51.456;7.248;2024-01-16T14:06:32;270.40;;;25.37;;
2934;SDS011;2462;51.456;7.248;2024-01-16T14:08:58;201.57;;;20.10;;
2934;SDS011;2462;51.456;7.248;2024-01-16T14:11:25;172.10;;;19.13;;
2934;SDS011;2462;51.456;7.248;2024-01-16T14:13:51;210.60;;;21.70;;
2934;SDS011;2462;51.456;7.248;2024-01-16T14:16:18;159.03;;;15.30;;
2934;SDS011;2462;51.456;7.248;2024-01-16T14:18:46;131.70;;;15.30;;
2934;SDS011;2462;51.456;7.248;2024-01-16T14:21:12;138.17;;;14.77;;
2934;SDS011;2462;51.456;7.248;2024-01-16T14:23:38;101.27;;;13.47;;
2934;SDS011;2462;51.456;7.248;2024-01-16T14:26:04;115.33;;;14.53;;
2934;SDS011;2462;51.456;7.248;2024-01-16T14:28:30;120.68;;;15.05;;
2934;SDS011;2462;51.456;7.248;2024-01-16T14:30:56;110.63;;;12.52;;
2934;SDS011;2462;51.456;7.248;2024-01-16T14:33:22;73.53;;;9.70;;
2934;SDS011;2462;51.456;7.248;2024-01-16T14:35:48;85.83;;;10.40;;
2934;SDS011;2462;51.456;7.248;2024-01-16T14:38:14;83.80;;;9.27;;
2934;SDS011;2462;51.456;7.248;2024-01-16T14:40:40;70.50;;;9.20;;
2934;SDS011;2462;51.456;7.248;2024-01-16T14:43:07;75.03;;;9.63;;
2934;SDS011;2462;51.456;7.248;2024-01-16T14:45:33;70.00;;;9.80;;
2934;SDS011;2462;51.456;7.248;2024-01-16T14:48:02;82.70;;;8.53;;
2934;SDS011;2462;51.456;7.248;2024-01-16T14:50:29;44.97;;;7.93;;
2934;SDS011;2462;51.456;7.248;2024-01-16T14:52:55;52.20;;;9.07;;
2934;SDS011;2462;51.456;7.248;2024-01-16T14:55:21;44.70;;;8.40;;
2934;SDS011;2462;51.456;7.248;2024-01-16T14:57:47;49.23;;;8.17;;
2934;SDS011;2462;51.456;7.248;2024-01-16T15:00:24;36.93;;;7.37;;
2934;SDS011;2462;51.456;7.248;2024-01-16T15:02:53;49.70;;;7.93;;
2934;SDS011;2462;51.456;7.248;2024-01-16T15:05:19;55.60;;;7.37;;
2934;SDS011;2462;51.456;7.248;2024-01-16T15:07:46;37.17;;;6.67;;
2934;SDS011;2462;51.456;7.248;2024-01-16T15:10:12;35.17;;;6.80;;
2934;SDS011;2462;51.456;7.248;2024-01-16T15:12:39;30.53;;;5.93;;
2934;SDS011;2462;51.456;7.248;2024-01-16T15:15:06;35.33;;;6.87;;
2934;SDS011;2462;51.456;7.248;2024-01-16T15:17:32;24.27;;;5.13;;
2934;SDS011;2462;51.456;7.248;2024-01-16T15:19:59;32.77;;;5.57;;
2934;SDS011;2462;51.456;7.248;2024-01-16T15:22:26;28.00;;;5.70;;
2934;SDS011;2462;51.456;7.248;2024-01-16T15:24:52;33.80;;;5.70;;